createdAt,value
2018-07-14T00:01:04.674Z,8.37
2018-07-14T00:03:33.309Z,10.00
2018-07-14T00:06:01.218Z,8.60
2018-07-14T00:08:29.127Z,8.20
2018-07-14T00:10:57.094Z,8.97
2018-07-14T00:13:25.600Z,8.90
2018-07-14T00:15:53.828Z,8.30
2018-07-14T00:18:22.188Z,9.27
2018-07-14T00:20:50.134Z,10.27
2018-07-14T00:23:18.068Z,9.90
2018-07-14T00:25:51.637Z,8.87
2018-07-14T00:28:19.386Z,9.70
2018-07-14T00:30:47.483Z,8.50
2018-07-14T00:33:18.425Z,8.30
2018-07-14T00:35:46.447Z,9.57
2018-07-14T00:38:14.334Z,9.00
2018-07-14T00:40:42.210Z,9.50
2018-07-14T00:43:10.700Z,11.17
2018-07-14T00:45:38.812Z,9.77
2018-07-14T00:48:06.731Z,10.13
2018-07-14T00:50:34.704Z,9.97
2018-07-14T00:53:02.700Z,8.53
2018-07-14T00:55:30.506Z,8.83
2018-07-14T00:57:58.375Z,9.97
2018-07-14T01:00:26.285Z,10.10
2018-07-14T01:02:54.181Z,9.73
2018-07-14T01:05:22.978Z,8.30
2018-07-14T01:07:50.915Z,9.47
2018-07-14T01:10:18.630Z,8.77
2018-07-14T01:12:46.517Z,8.77
2018-07-14T01:15:14.528Z,9.80
2018-07-14T01:17:42.512Z,9.13
2018-07-14T01:20:10.633Z,9.33
2018-07-14T01:22:38.669Z,8.60
2018-07-14T01:25:06.623Z,9.07
2018-07-14T01:27:34.558Z,8.77
2018-07-14T01:30:02.475Z,8.50
2018-07-14T01:32:30.632Z,8.77
2018-07-14T01:34:59.080Z,9.17
2018-07-14T01:37:26.985Z,8.00
2018-07-14T01:39:55.474Z,9.03
2018-07-14T01:42:23.377Z,8.17
2018-07-14T01:44:51.315Z,9.47
2018-07-14T01:47:19.204Z,9.30
2018-07-14T01:49:47.076Z,8.63
2018-07-14T01:52:14.922Z,8.57
2018-07-14T01:54:42.800Z,8.73
2018-07-14T01:57:15.790Z,7.97
2018-07-14T01:59:43.731Z,8.90
2018-07-14T02:02:11.611Z,9.27
2018-07-14T02:04:39.469Z,7.97
2018-07-14T02:07:07.512Z,8.40
2018-07-14T02:09:35.379Z,8.47
2018-07-14T02:12:03.125Z,9.80
2018-07-14T02:14:31.081Z,9.33
2018-07-14T02:16:59.078Z,8.50
2018-07-14T02:19:26.973Z,8.53
2018-07-14T02:21:54.853Z,8.90
2018-07-14T02:24:23.533Z,8.47
2018-07-14T02:26:51.342Z,8.00
2018-07-14T02:29:19.229Z,8.23
2018-07-14T02:31:49.867Z,8.80
2018-07-14T02:34:18.471Z,9.47
2018-07-14T02:36:46.365Z,9.50
2018-07-14T02:39:14.227Z,8.60
2018-07-14T02:41:42.909Z,9.40
2018-07-14T02:44:11.142Z,9.93
2018-07-14T02:46:39.051Z,10.30
2018-07-14T02:49:06.948Z,9.10
2018-07-14T02:51:34.849Z,9.67
2018-07-14T02:54:02.721Z,9.50
2018-07-14T02:56:30.470Z,8.80
2018-07-14T02:58:58.318Z,10.33
2018-07-14T03:01:26.187Z,10.83
2018-07-14T03:03:54.731Z,10.13
2018-07-14T03:06:23.187Z,8.60
2018-07-14T03:08:51.067Z,11.00
2018-07-14T03:11:18.936Z,9.83
2018-07-14T03:13:46.625Z,10.03
2018-07-14T03:16:14.506Z,9.00
2018-07-14T03:18:42.384Z,10.80
2018-07-14T03:21:10.927Z,8.87
2018-07-14T03:23:39.281Z,9.93
2018-07-14T03:26:07.196Z,9.70
2018-07-14T03:28:35.039Z,9.50
2018-07-14T03:31:02.912Z,9.33
2018-07-14T03:33:30.774Z,9.63
2018-07-14T03:35:58.641Z,9.60
2018-07-14T03:38:26.539Z,10.37
2018-07-14T03:40:54.392Z,9.20
2018-07-14T03:43:22.246Z,8.73
2018-07-14T03:45:50.935Z,9.03
2018-07-14T03:48:18.831Z,10.03
2018-07-14T03:50:46.758Z,8.50
2018-07-14T03:53:14.628Z,10.07
2018-07-14T03:55:43.223Z,10.47
2018-07-14T03:58:11.085Z,9.33
2018-07-14T04:00:38.949Z,8.53
2018-07-14T04:03:07.625Z,9.07
2018-07-14T04:05:36.491Z,11.00
2018-07-14T04:08:06.635Z,9.13
2018-07-14T04:10:36.784Z,9.13
2018-07-14T04:13:07.095Z,9.57
2018-07-14T04:15:36.509Z,10.27
2018-07-14T04:18:07.319Z,10.40
2018-07-14T04:20:36.264Z,10.50
2018-07-14T04:23:06.103Z,9.97
2018-07-14T04:25:35.598Z,10.20
2018-07-14T04:28:05.652Z,11.20
2018-07-14T04:30:34.634Z,9.93
2018-07-14T04:33:04.141Z,9.93
2018-07-14T04:35:35.507Z,10.20
2018-07-14T04:38:06.174Z,11.80
2018-07-14T04:40:36.875Z,10.13
2018-07-14T04:43:05.155Z,10.33
2018-07-14T04:45:34.947Z,10.80
2018-07-14T04:48:05.167Z,9.30
2018-07-14T04:50:33.685Z,10.30
2018-07-14T04:53:03.065Z,10.57
2018-07-14T04:55:33.807Z,10.40
2018-07-14T04:58:03.223Z,9.50
2018-07-14T05:00:34.460Z,11.07
2018-07-14T05:03:07.493Z,12.00
2018-07-14T05:05:38.601Z,11.07
2018-07-14T05:08:09.727Z,11.43
2018-07-14T05:10:39.206Z,11.37
2018-07-14T05:13:07.882Z,9.70
2018-07-14T05:15:36.270Z,11.63
2018-07-14T05:18:04.388Z,10.83
2018-07-14T05:20:33.687Z,11.53
2018-07-14T05:23:01.753Z,10.70
2018-07-14T05:25:30.500Z,10.13
2018-07-14T05:27:58.403Z,11.00
2018-07-14T05:30:27.707Z,10.13
2018-07-14T05:32:56.234Z,9.43
2018-07-14T05:35:24.136Z,10.80
2018-07-14T05:37:52.495Z,9.47
2018-07-14T05:40:21.323Z,8.97
2018-07-14T05:42:49.358Z,8.80
2018-07-14T05:45:17.923Z,8.20
2018-07-14T05:47:45.835Z,8.23
2018-07-14T05:50:13.763Z,6.87
2018-07-14T05:52:41.545Z,7.37
2018-07-14T05:55:09.337Z,7.33
2018-07-14T05:57:37.356Z,7.20
2018-07-14T06:00:05.769Z,6.60
2018-07-14T06:02:33.642Z,6.23
2018-07-14T06:05:01.576Z,6.80
2018-07-14T06:07:29.499Z,6.17
2018-07-14T06:09:57.372Z,6.27
2018-07-14T06:12:25.126Z,6.63
2018-07-14T06:14:53.303Z,6.13
2018-07-14T06:17:21.197Z,6.27
2018-07-14T06:19:49.046Z,8.57
2018-07-14T06:22:16.944Z,5.90
2018-07-14T06:24:44.868Z,6.47
2018-07-14T06:27:12.769Z,7.20
2018-07-14T06:29:40.686Z,6.20
2018-07-14T06:32:09.197Z,7.10
2018-07-14T06:34:37.426Z,7.77
2018-07-14T06:37:05.207Z,19.93
2018-07-14T06:39:33.655Z,8.20
2018-07-14T06:42:01.530Z,6.47
2018-07-14T06:44:29.246Z,9.00
2018-07-14T06:46:57.100Z,5.43
2018-07-14T06:49:24.988Z,4.97
2018-07-14T06:51:52.870Z,6.07
2018-07-14T06:54:20.741Z,5.20
2018-07-14T06:56:48.634Z,5.00
2018-07-14T06:59:16.344Z,6.17
2018-07-14T07:01:44.335Z,5.13
2018-07-14T07:04:12.924Z,6.20
2018-07-14T07:06:40.826Z,4.90
2018-07-14T07:09:09.943Z,5.33
2018-07-14T07:11:38.419Z,5.30
2018-07-14T07:14:06.506Z,5.83
2018-07-14T07:16:35.012Z,5.23
2018-07-14T07:19:25.565Z,5.60
2018-07-14T07:27:53.583Z,5.40
2018-07-14T07:36:22.984Z,5.67
2018-07-14T07:44:56.943Z,5.20
2018-07-14T07:47:36.683Z,5.10
2018-07-14T07:56:10.939Z,5.43
2018-07-14T08:22:05.657Z,5.47
2018-07-14T08:24:57.515Z,4.87
2018-07-14T08:27:51.395Z,4.80
2018-07-14T08:36:30.512Z,5.03
2018-07-14T08:42:04.129Z,5.50
2018-07-14T08:47:25.355Z,4.80
2018-07-14T08:52:45.151Z,4.53
2018-07-14T08:57:59.230Z,4.00
2018-07-14T09:03:11.749Z,8.13
2018-07-14T09:08:23.294Z,5.13
2018-07-14T09:19:49.004Z,4.70
2018-07-14T09:22:36.938Z,4.00
2018-07-14T09:28:04.619Z,4.07
2018-07-14T09:42:24.996Z,3.50
2018-07-14T09:56:30.742Z,3.17
2018-07-14T09:59:12.008Z,3.37
2018-07-14T10:04:31.904Z,3.93
2018-07-14T10:10:00.683Z,4.10
2018-07-14T10:18:15.546Z,3.00
2018-07-14T10:37:55.488Z,3.10
2018-07-14T10:40:28.161Z,3.13
2018-07-14T10:43:15.904Z,3.20
2018-07-14T10:45:58.341Z,2.83
2018-07-14T10:48:43.958Z,3.20
2018-07-14T10:51:18.430Z,3.03
2018-07-14T10:53:54.164Z,3.00
2018-07-14T10:56:32.191Z,2.90
2018-07-14T11:04:45.588Z,2.53
2018-07-14T11:07:25.324Z,2.70
2018-07-14T11:10:04.351Z,2.87
2018-07-14T11:15:49.514Z,3.03
2018-07-14T11:24:02.605Z,2.73
2018-07-14T11:29:26.455Z,2.67
2018-07-14T11:46:24.947Z,2.90
2018-07-14T11:49:07.147Z,2.90
2018-07-14T11:51:50.996Z,3.23
2018-07-14T11:54:27.655Z,3.17
2018-07-14T12:02:46.878Z,2.83
2018-07-14T12:08:15.019Z,3.00
2018-07-14T12:19:29.382Z,4.37
2018-07-14T12:25:06.834Z,5.87
2018-07-14T12:27:55.225Z,5.67
2018-07-14T12:36:23.836Z,6.10
2018-07-14T12:39:07.002Z,5.77
2018-07-14T12:52:39.705Z,4.23
2018-07-14T12:58:08.217Z,6.87
2018-07-14T13:03:43.395Z,4.43
2018-07-14T13:09:14.982Z,5.60
2018-07-14T13:14:46.855Z,6.00
2018-07-14T13:20:07.575Z,6.00
2018-07-14T13:22:47.381Z,5.40
2018-07-14T13:25:32.970Z,4.80
2018-07-14T13:33:41.158Z,4.93
2018-07-14T13:42:08.386Z,5.23
2018-07-14T13:47:54.020Z,6.20
2018-07-14T13:53:23.988Z,4.80
2018-07-14T14:01:37.412Z,4.40
2018-07-14T14:07:24.603Z,3.90
2018-07-14T14:15:42.873Z,3.27
2018-07-14T14:18:32.663Z,4.00
2018-07-14T14:21:16.398Z,3.47
2018-07-14T14:23:57.829Z,3.50
2018-07-14T14:26:29.648Z,3.20
2018-07-14T14:29:00.505Z,3.20
2018-07-14T14:31:41.136Z,2.60
2018-07-14T14:34:21.007Z,3.23
2018-07-14T14:37:12.181Z,3.37
2018-07-14T14:40:06.591Z,5.20
2018-07-14T14:42:53.977Z,3.33
2018-07-14T14:45:34.800Z,3.07
2018-07-14T14:51:05.448Z,3.13
2018-07-14T14:53:48.259Z,2.80
2018-07-14T14:56:35.592Z,2.27
2018-07-14T15:02:00.343Z,2.77
2018-07-14T15:04:32.523Z,2.47
2018-07-14T15:07:14.568Z,2.97
2018-07-14T15:10:02.612Z,2.73
2018-07-14T15:12:43.337Z,2.40
2018-07-14T15:18:19.987Z,2.53
2018-07-14T15:21:06.993Z,3.27
2018-07-14T15:23:49.596Z,3.20
2018-07-14T15:44:10.110Z,2.90
2018-07-14T15:58:52.919Z,3.90
2018-07-14T16:07:25.035Z,3.90
2018-07-14T16:12:55.452Z,3.90
2018-07-14T16:15:41.824Z,4.63
2018-07-14T16:18:23.663Z,5.00
2018-07-14T16:23:52.791Z,3.90
2018-07-14T16:29:13.970Z,3.10
2018-07-14T16:31:52.589Z,3.30
2018-07-14T16:34:35.395Z,3.93
2018-07-14T16:37:11.156Z,3.97
2018-07-14T16:39:58.217Z,3.67
2018-07-14T16:42:45.666Z,3.60
2018-07-14T16:48:13.838Z,3.70
2018-07-14T16:53:46.245Z,3.70
2018-07-14T16:56:30.955Z,3.50
2018-07-14T17:05:05.467Z,3.60
2018-07-14T17:13:28.557Z,5.10
2018-07-14T17:16:09.273Z,4.47
2018-07-14T17:21:44.707Z,4.30
2018-07-14T17:27:11.982Z,4.63
2018-07-14T17:29:56.750Z,5.03
2018-07-14T17:32:42.576Z,4.83
2018-07-14T17:35:20.015Z,4.53
2018-07-14T17:38:00.676Z,4.83
2018-07-14T17:40:42.467Z,6.23
2018-07-14T17:49:10.085Z,5.40
2018-07-14T17:51:56.778Z,5.27
2018-07-14T17:57:14.781Z,5.10
2018-07-14T18:00:06.060Z,5.40
2018-07-14T18:02:52.066Z,5.30
2018-07-14T18:14:02.583Z,6.37
2018-07-14T18:16:44.172Z,6.37
2018-07-14T18:19:27.792Z,6.00
2018-07-14T18:33:22.114Z,6.10
2018-07-14T18:36:04.809Z,6.93
2018-07-14T18:41:35.506Z,6.40
2018-07-14T18:47:17.437Z,6.70
2018-07-14T18:49:55.447Z,6.20
2018-07-14T18:52:27.773Z,7.10
2018-07-14T18:55:11.804Z,6.20
2018-07-14T18:57:51.422Z,6.20
2018-07-14T19:00:31.291Z,7.00
2018-07-14T19:03:15.912Z,7.03
2018-07-14T19:05:56.874Z,7.33
2018-07-14T19:08:33.048Z,7.77
2018-07-14T19:11:09.727Z,7.50
2018-07-14T19:16:42.937Z,6.60
2018-07-14T19:19:16.654Z,7.40
2018-07-14T19:22:05.683Z,6.60
2018-07-14T19:24:51.087Z,7.13
2018-07-14T19:27:39.227Z,6.10
2018-07-14T19:33:06.203Z,7.47
2018-07-14T19:35:46.151Z,6.93
2018-07-14T19:38:22.908Z,7.10
2018-07-14T19:43:47.480Z,7.17
2018-07-14T19:49:18.839Z,7.30
2018-07-14T19:54:38.508Z,7.33
2018-07-14T19:57:19.980Z,7.80
2018-07-14T20:05:36.327Z,7.60
2018-07-14T20:11:02.058Z,8.20
2018-07-14T20:19:19.108Z,7.00
2018-07-14T20:24:58.267Z,7.70
2018-07-14T20:33:24.293Z,7.27
2018-07-14T20:47:38.156Z,7.57
2018-07-14T20:50:23.052Z,7.57
2018-07-14T20:55:45.325Z,7.73
2018-07-14T21:06:35.368Z,6.80
2018-07-14T21:14:25.730Z,6.23
2018-07-14T21:17:07.160Z,6.60
2018-07-14T21:19:56.488Z,7.23
2018-07-14T21:22:29.342Z,6.60
2018-07-14T21:25:07.254Z,6.97
2018-07-14T21:27:42.107Z,8.23
2018-07-14T21:30:31.066Z,7.43
2018-07-14T21:33:08.561Z,7.17
2018-07-14T21:35:46.361Z,7.10
2018-07-14T21:43:53.687Z,7.47
2018-07-14T21:46:32.114Z,7.40
2018-07-14T21:49:02.059Z,7.23
2018-07-14T21:51:39.603Z,7.63
2018-07-14T21:54:18.582Z,7.27
2018-07-14T21:56:49.176Z,7.57
2018-07-14T22:02:12.049Z,7.03
2018-07-14T22:05:00.184Z,6.67
2018-07-14T22:07:32.572Z,7.20
2018-07-14T22:10:05.406Z,7.83
2018-07-14T22:12:42.112Z,8.13
2018-07-14T22:15:26.360Z,7.20
2018-07-14T22:20:39.256Z,7.40
2018-07-14T22:23:11.954Z,7.67
2018-07-14T22:25:49.879Z,7.70
2018-07-14T22:28:19.563Z,6.90
2018-07-14T22:30:51.147Z,7.53
2018-07-14T22:33:24.308Z,7.23
2018-07-14T22:39:02.575Z,7.53
2018-07-14T22:47:27.339Z,8.50
2018-07-14T22:49:58.676Z,7.37
2018-07-14T22:52:29.496Z,7.73
2018-07-14T22:55:00.085Z,8.43
2018-07-14T22:57:35.084Z,8.80
2018-07-14T23:00:06.649Z,7.83
2018-07-14T23:02:37.834Z,8.93
2018-07-14T23:05:13.049Z,8.10
2018-07-14T23:07:51.853Z,9.10
2018-07-14T23:10:20.670Z,7.60
2018-07-14T23:12:51.393Z,8.17
2018-07-14T23:15:23.714Z,8.47
2018-07-14T23:17:54.469Z,8.77
2018-07-14T23:20:32.451Z,8.70
2018-07-14T23:23:02.512Z,9.20
2018-07-14T23:25:35.920Z,8.33
2018-07-14T23:28:12.362Z,9.20
2018-07-14T23:30:42.105Z,8.00
2018-07-14T23:33:16.703Z,9.63
2018-07-14T23:35:47.839Z,11.10
2018-07-14T23:38:19.928Z,8.20
2018-07-14T23:40:53.024Z,8.20
2018-07-14T23:43:34.808Z,9.10
2018-07-14T23:46:04.728Z,8.23
2018-07-14T23:48:39.522Z,7.30
2018-07-14T23:51:10.999Z,8.70
2018-07-14T23:53:53.257Z,9.40
2018-07-14T23:56:32.517Z,9.03
2018-07-14T23:59:21.556Z,8.80
